Time;durP1;ratioP1;P1;durP2;ratioP2;P2;SDS_P1;SDS_P2;PMS_P1;PMS_P2;Temp;Humidity;BMP_temperature;BMP_pressure;BME280_temperature;BME280_humidity;BME280_pressure;Samples;Min_cycle;Max_cycle;Signal;HPM_P1;HPM_P2
2022/01/23 00:02:12;;;;;;;35.08;16.10;;;;;;;;;;4974344;28;20027;-62
2022/01/23 00:04:38;;;;;;;30.33;14.13;;;;;;;;;;4980410;28;20058;-63
2022/01/23 00:07:07;;;;;;;29.00;14.25;;;;;;;;;;4980273;28;20023;-62
2022/01/23 00:09:33;;;;;;;24.38;11.30;;;;;;;;;;4982050;28;20085;-63
2022/01/23 00:12:05;;;;;;;20.27;10.50;;;;;;;;;;4985537;28;20099;-62
2022/01/23 00:17:20;;;;;;;19.85;9.90;;;;;;;;;;4957462;28;20323;-62
2022/01/23 00:20:06;;;;;;;19.00;9.10;;;;;;;;;;4994827;28;20029;-62
2022/01/23 00:23:14;;;;;;;18.33;9.65;;;;;;;;;;4994639;28;20027;-62
2022/01/23 00:30:59;;;;;;;18.80;9.05;;;;;;;;;;4979127;28;20565;-64
2022/01/23 00:33:25;;;;;;;19.08;8.52;;;;;;;;;;4973610;28;20042;-62
2022/01/23 00:35:53;;;;;;;23.17;8.80;;;;;;;;;;4974201;28;20058;-62
2022/01/23 00:38:19;;;;;;;15.77;8.13;;;;;;;;;;4972952;28;20038;-63
2022/01/23 00:40:47;;;;;;;18.17;8.68;;;;;;;;;;4973287;28;20041;-62
2022/01/23 00:43:17;;;;;;;20.88;8.40;;;;;;;;;;4973179;28;20034;-61
2022/01/23 00:45:50;;;;;;;12.70;7.60;;;;;;;;;;4973379;28;20030;-64
2022/01/23 00:48:17;;;;;;;19.80;8.82;;;;;;;;;;4974147;28;20019;-62
2022/01/23 00:50:44;;;;;;;21.02;10.02;;;;;;;;;;4974398;28;20114;-61
2022/01/23 00:53:11;;;;;;;18.27;8.43;;;;;;;;;;4974780;28;20026;-61
2022/01/23 00:55:41;;;;;;;17.75;8.38;;;;;;;;;;4974769;28;20027;-61
2022/01/23 00:58:08;;;;;;;19.42;8.98;;;;;;;;;;4978708;28;20046;-62
2022/01/23 01:00:34;;;;;;;20.00;9.45;;;;;;;;;;4993555;28;20495;-63
2022/01/23 01:03:01;;;;;;;20.27;9.07;;;;;;;;;;4994113;28;20031;-62
2022/01/23 01:05:27;;;;;;;23.25;9.65;;;;;;;;;;4993726;28;20054;-62
2022/01/23 01:07:54;;;;;;;19.85;8.63;;;;;;;;;;4994642;28;20034;-62
2022/01/23 01:10:26;;;;;;;21.35;9.30;;;;;;;;;;4993981;28;20056;-62
2022/01/23 01:12:58;;;;;;;17.00;8.13;;;;;;;;;;4994433;28;20040;-62
2022/01/23 01:15:32;;;;;;;20.23;9.38;;;;;;;;;;4994209;28;20436;-62
2022/01/23 01:31:46;;;;;;;16.92;7.63;;;;;;;;;;4993888;28;20411;-63
2022/01/23 01:34:22;;;;;;;14.50;7.18;;;;;;;;;;4993745;28;20038;-62
2022/01/23 01:36:51;;;;;;;16.20;7.00;;;;;;;;;;4994260;28;20033;-64
2022/01/23 01:39:18;;;;;;;17.55;6.82;;;;;;;;;;4997269;28;20058;-63
2022/01/23 01:41:45;;;;;;;17.70;8.40;;;;;;;;;;4997573;28;20062;-63
2022/01/23 01:44:11;;;;;;;18.67;8.32;;;;;;;;;;4997599;28;20096;-64
2022/01/23 01:46:38;;;;;;;19.23;8.00;;;;;;;;;;4997561;28;20459;-61
2022/01/23 01:49:05;;;;;;;16.25;6.82;;;;;;;;;;4997505;28;20022;-61
2022/01/23 01:51:33;;;;;;;18.02;7.07;;;;;;;;;;4998165;28;20027;-63
2022/01/23 01:54:08;;;;;;;17.48;6.90;;;;;;;;;;4998177;28;20025;-62
2022/01/23 01:56:49;;;;;;;11.75;5.80;;;;;;;;;;4996855;28;20024;-62
2022/01/23 01:59:45;;;;;;;15.57;7.55;;;;;;;;;;4997299;28;20029;-62
2022/01/23 02:10:06;;;;;;;19.85;7.47;;;;;;;;;;4996892;28;20122;-61
2022/01/23 02:53:13;;;;;;;24.52;9.15;;;;;;;;;;4996130;28;20040;-62
2022/01/23 02:55:40;;;;;;;17.80;8.43;;;;;;;;;;4996858;28;20081;-62
2022/01/23 02:58:08;;;;;;;14.18;7.57;;;;;;;;;;4996448;28;20434;-62
2022/01/23 03:00:46;;;;;;;15.57;8.02;;;;;;;;;;4996443;28;20061;-63
2022/01/23 03:03:20;;;;;;;17.58;8.57;;;;;;;;;;4996806;28;20030;-63
2022/01/23 03:05:58;;;;;;;19.38;9.05;;;;;;;;;;4996010;28;20022;-62
2022/01/23 03:08:43;;;;;;;21.25;9.88;;;;;;;;;;4996471;28;20022;-62
2022/01/23 03:11:27;;;;;;;18.60;8.23;;;;;;;;;;4996405;28;20030;-62
2022/01/23 03:14:02;;;;;;;17.95;7.07;;;;;;;;;;4996294;28;20114;-63
2022/01/23 03:25:00;;;;;;;13.70;6.32;;;;;;;;;;4995835;28;20399;-62
2022/01/23 03:30:18;;;;;;;12.23;6.65;;;;;;;;;;4995732;28;20498;-62
2022/01/23 03:32:47;;;;;;;16.85;7.03;;;;;;;;;;4996143;28;20058;-63
2022/01/23 03:35:14;;;;;;;18.48;8.02;;;;;;;;;;4995634;28;20379;-62
2022/01/23 03:37:40;;;;;;;24.38;8.35;;;;;;;;;;4995849;28;20057;-63
2022/01/23 03:40:07;;;;;;;13.98;7.15;;;;;;;;;;4995142;28;20538;-62
2022/01/23 03:42:36;;;;;;;20.63;8.60;;;;;;;;;;4996029;28;20081;-62
2022/01/23 03:47:39;;;;;;;14.85;7.32;;;;;;;;;;4995146;28;20030;-63
2022/01/23 03:50:07;;;;;;;15.55;6.65;;;;;;;;;;4995123;28;20475;-62
2022/01/23 03:52:33;;;;;;;15.93;6.93;;;;;;;;;;4995144;28;20037;-63
2022/01/23 03:55:00;;;;;;;17.77;6.57;;;;;;;;;;4995149;28;20053;-62
2022/01/23 03:57:26;;;;;;;12.27;6.28;;;;;;;;;;4995294;28;20088;-63
2022/01/23 03:59:52;;;;;;;12.38;5.88;;;;;;;;;;4995649;28;20101;-63
2022/01/23 04:02:18;;;;;;;12.13;6.18;;;;;;;;;;4994469;28;20161;-63
2022/01/23 04:04:45;;;;;;;18.27;6.38;;;;;;;;;;4995206;28;20073;-63
2022/01/23 04:07:20;;;;;;;17.35;7.50;;;;;;;;;;4994888;28;20022;-63
2022/01/23 04:09:48;;;;;;;16.90;7.65;;;;;;;;;;4994925;28;20026;-63
2022/01/23 04:14:54;;;;;;;18.50;7.82;;;;;;;;;;4995242;28;20117;-62
2022/01/23 04:33:58;;;;;;;15.65;7.32;;;;;;;;;;4994808;28;20041;-62
2022/01/23 05:01:43;;;;;;;14.35;6.95;;;;;;;;;;4994267;28;20423;-62
2022/01/23 05:06:59;;;;;;;16.88;6.32;;;;;;;;;;4994564;28;20030;-62
2022/01/23 05:09:25;;;;;;;17.20;6.05;;;;;;;;;;4994362;28;20113;-63
2022/01/23 05:11:55;;;;;;;15.43;6.47;;;;;;;;;;4994104;28;20073;-62
2022/01/23 05:14:28;;;;;;;14.90;7.10;;;;;;;;;;5000621;28;20054;-62
2022/01/23 05:16:54;;;;;;;16.60;7.05;;;;;;;;;;5000692;28;20027;-62
2022/01/23 05:19:20;;;;;;;14.65;6.95;;;;;;;;;;5000502;28;20027;-62
2022/01/23 05:24:32;;;;;;;29.75;12.45;;;;;;;;;;5000419;28;20026;-62
2022/01/23 05:26:58;;;;;;;24.83;8.80;;;;;;;;;;5000733;28;20018;-62
2022/01/23 05:29:25;;;;;;;22.98;8.68;;;;;;;;;;5000385;28;20026;-62
2022/01/23 05:31:52;;;;;;;17.90;8.55;;;;;;;;;;4999942;28;20085;-62
2022/01/23 05:34:21;;;;;;;23.98;10.23;;;;;;;;;;5000545;28;20058;-63
2022/01/23 05:36:47;;;;;;;33.30;12.55;;;;;;;;;;5000793;28;20459;-64
2022/01/23 05:39:16;;;;;;;27.45;9.93;;;;;;;;;;5000242;28;20117;-63
2022/01/23 05:41:42;;;;;;;20.48;9.10;;;;;;;;;;5000529;28;20034;-63
2022/01/23 05:44:08;;;;;;;15.20;7.70;;;;;;;;;;5000487;28;20029;-63
2022/01/23 05:46:34;;;;;;;28.58;10.75;;;;;;;;;;4999935;28;20022;-63
2022/01/23 05:49:01;;;;;;;22.40;9.02;;;;;;;;;;5000476;28;20459;-62
2022/01/23 05:51:27;;;;;;;16.65;7.68;;;;;;;;;;5000405;28;20026;-63
2022/01/23 05:53:53;;;;;;;18.90;7.78;;;;;;;;;;5000117;28;20061;-63
2022/01/23 05:56:19;;;;;;;25.33;9.15;;;;;;;;;;5000671;28;20106;-63
2022/01/23 05:59:06;;;;;;;21.98;9.13;;;;;;;;;;5000599;28;20053;-66
2022/01/23 06:01:32;;;;;;;25.02;10.40;;;;;;;;;;5000120;28;20395;-62
2022/01/23 06:03:58;;;;;;;30.30;12.70;;;;;;;;;;5000125;28;20037;-63
2022/01/23 06:06:25;;;;;;;23.67;12.02;;;;;;;;;;4999958;28;20091;-64
2022/01/23 06:08:51;;;;;;;22.95;10.50;;;;;;;;;;5000048;28;20084;-63
2022/01/23 06:11:17;;;;;;;21.50;8.25;;;;;;;;;;4999928;28;20030;-63
2022/01/23 06:13:43;;;;;;;16.45;7.30;;;;;;;;;;4999749;28;20542;-63
2022/01/23 06:16:09;;;;;;;14.90;7.00;;;;;;;;;;4999946;28;20030;-63
2022/01/23 06:18:38;;;;;;;14.73;7.65;;;;;;;;;;4998778;28;20058;-63
2022/01/23 06:21:04;;;;;;;10.30;6.10;;;;;;;;;;4999890;28;20514;-62
2022/01/23 06:23:31;;;;;;;21.83;10.05;;;;;;;;;;4999327;28;20061;-62
2022/01/23 06:25:58;;;;;;;30.67;14.35;;;;;;;;;;4995604;28;20027;-62
2022/01/23 06:28:30;;;;;;;20.85;8.55;;;;;;;;;;4996116;28;20022;-63
2022/01/23 06:30:56;;;;;;;14.68;7.82;;;;;;;;;;4995713;28;20030;-62
2022/01/23 06:33:22;;;;;;;38.15;17.10;;;;;;;;;;4996498;28;20023;-63
2022/01/23 06:35:48;;;;;;;21.90;9.65;;;;;;;;;;4995531;28;20037;-63
2022/01/23 06:38:15;;;;;;;22.77;9.57;;;;;;;;;;4996540;28;20022;-63
2022/01/23 06:40:41;;;;;;;17.17;8.00;;;;;;;;;;4996861;28;20034;-63
2022/01/23 06:43:07;;;;;;;22.25;10.27;;;;;;;;;;4996084;28;20041;-63
2022/01/23 06:45:33;;;;;;;18.92;9.65;;;;;;;;;;4996066;28;20101;-64
2022/01/23 06:47:59;;;;;;;26.20;11.02;;;;;;;;;;4995261;28;20022;-62
2022/01/23 06:50:25;;;;;;;24.38;11.77;;;;;;;;;;4996133;28;20037;-62
2022/01/23 06:52:51;;;;;;;30.55;12.32;;;;;;;;;;4996580;28;20053;-63
2022/01/23 06:55:18;;;;;;;30.20;14.10;;;;;;;;;;4996149;28;20021;-64
2022/01/23 06:57:44;;;;;;;32.22;13.13;;;;;;;;;;4996257;28;20072;-64
2022/01/23 07:00:14;;;;;;;27.35;14.05;;;;;;;;;;4995748;28;20038;-63
2022/01/23 07:02:43;;;;;;;34.55;16.85;;;;;;;;;;4996032;28;20026;-64
2022/01/23 07:05:09;;;;;;;28.88;13.75;;;;;;;;;;4996166;28;20489;-65
2022/01/23 07:07:35;;;;;;;35.88;17.13;;;;;;;;;;4995879;28;20019;-64
2022/01/23 07:10:02;;;;;;;35.22;17.40;;;;;;;;;;4995569;28;20088;-64
2022/01/23 07:12:28;;;;;;;34.70;17.77;;;;;;;;;;4995680;28;20026;-64
2022/01/23 07:14:54;;;;;;;42.38;19.63;;;;;;;;;;4995760;28;20502;-65
2022/01/23 07:17:21;;;;;;;39.50;18.25;;;;;;;;;;4995352;28;20026;-65
2022/01/23 07:19:48;;;;;;;36.78;17.88;;;;;;;;;;4995938;28;20107;-64
2022/01/23 07:22:14;;;;;;;44.88;19.25;;;;;;;;;;4995306;28;20057;-64
2022/01/23 07:24:40;;;;;;;42.08;19.42;;;;;;;;;;4995608;28;20080;-65
2022/01/23 07:27:19;;;;;;;29.73;15.30;;;;;;;;;;4995598;28;20022;-65
2022/01/23 07:29:47;;;;;;;34.65;16.25;;;;;;;;;;4995930;28;20022;-66
2022/01/23 07:32:13;;;;;;;31.38;15.75;;;;;;;;;;4995077;28;20483;-64
2022/01/23 07:34:39;;;;;;;33.50;15.45;;;;;;;;;;4995675;28;20038;-65
2022/01/23 07:37:06;;;;;;;32.78;15.65;;;;;;;;;;4995203;28;20030;-63
2022/01/23 07:39:32;;;;;;;32.13;15.50;;;;;;;;;;4995311;28;20026;-66
2022/01/23 07:41:58;;;;;;;28.38;14.70;;;;;;;;;;4995493;28;20034;-58
2022/01/23 07:44:24;;;;;;;26.35;13.70;;;;;;;;;;4993583;28;20036;-57
2022/01/23 07:46:51;;;;;;;39.78;15.55;;;;;;;;;;4994805;28;20022;-54
2022/01/23 07:49:18;;;;;;;36.33;16.95;;;;;;;;;;4994573;28;20057;-57
2022/01/23 07:51:44;;;;;;;36.80;18.48;;;;;;;;;;4994595;28;20030;-56
2022/01/23 07:54:10;;;;;;;41.67;21.23;;;;;;;;;;4994573;28;20033;-54
2022/01/23 07:56:38;;;;;;;36.03;15.82;;;;;;;;;;4994901;28;20029;-53
2022/01/23 07:59:05;;;;;;;39.60;17.27;;;;;;;;;;4993793;28;20026;-58
2022/01/23 08:01:31;;;;;;;28.30;14.05;;;;;;;;;;4995100;28;20026;-54
2022/01/23 08:03:58;;;;;;;54.30;23.02;;;;;;;;;;4994933;28;20447;-54
2022/01/23 08:06:28;;;;;;;122.32;42.65;;;;;;;;;;4995138;28;20038;-56
2022/01/23 08:08:58;;;;;;;71.93;30.60;;;;;;;;;;4994899;28;20031;-56
2022/01/23 08:11:24;;;;;;;39.55;20.13;;;;;;;;;;4994778;28;20499;-55
2022/01/23 08:13:50;;;;;;;50.67;22.90;;;;;;;;;;4992721;28;20371;-56
2022/01/23 08:16:16;;;;;;;40.13;20.42;;;;;;;;;;4994841;28;20030;-55
2022/01/23 08:18:42;;;;;;;40.40;22.35;;;;;;;;;;4994814;28;20027;-57
2022/01/23 08:21:08;;;;;;;60.47;30.63;;;;;;;;;;4994722;28;20487;-56
2022/01/23 08:23:38;;;;;;;48.97;25.02;;;;;;;;;;4994645;28;20026;-55
2022/01/23 08:26:04;;;;;;;47.13;22.55;;;;;;;;;;4994228;28;20069;-53
2022/01/23 08:28:30;;;;;;;43.65;23.42;;;;;;;;;;4994482;28;20386;-58
2022/01/23 08:30:56;;;;;;;40.50;20.55;;;;;;;;;;4994346;28;20029;-57
2022/01/23 08:33:25;;;;;;;39.50;19.77;;;;;;;;;;4994015;28;20030;-60
2022/01/23 08:35:56;;;;;;;37.42;20.10;;;;;;;;;;4994313;28;20554;-54
2022/01/23 08:38:22;;;;;;;34.97;17.45;;;;;;;;;;4994412;28;20106;-54
2022/01/23 08:41:49;;;;;;;28.85;15.23;;;;;;;;;;4991645;28;20050;-54
2022/01/23 08:43:34;;;;;;;26.30;13.57;;;;;;;;;;4994076;28;20455;-53
2022/01/23 08:46:01;;;;;;;24.27;13.80;;;;;;;;;;4994562;28;20022;-55
2022/01/23 08:48:27;;;;;;;22.63;12.05;;;;;;;;;;4993624;28;20029;-57
2022/01/23 08:50:53;;;;;;;25.23;11.82;;;;;;;;;;4994747;28;20054;-55
2022/01/23 08:53:19;;;;;;;27.25;12.75;;;;;;;;;;4994043;28;20378;-53
2022/01/23 08:55:46;;;;;;;35.28;15.25;;;;;;;;;;4994059;28;20031;-57
2022/01/23 08:58:12;;;;;;;21.40;11.38;;;;;;;;;;4993358;28;20146;-57
2022/01/23 09:00:38;;;;;;;23.35;11.80;;;;;;;;;;4976810;28;20038;-55
2022/01/23 09:03:05;;;;;;;36.28;16.75;;;;;;;;;;4993653;28;20365;-57
2022/01/23 09:05:31;;;;;;;31.25;14.75;;;;;;;;;;4994194;28;20459;-59
2022/01/23 09:07:58;;;;;;;31.40;15.70;;;;;;;;;;4994132;28;20072;-53
2022/01/23 09:10:28;;;;;;;24.75;13.48;;;;;;;;;;4993543;28;20033;-56
2022/01/23 09:13:05;;;;;;;29.38;13.73;;;;;;;;;;4993682;28;20031;-51
2022/01/23 09:15:31;;;;;;;28.65;13.40;;;;;;;;;;4993648;28;20459;-51
2022/01/23 09:17:58;;;;;;;30.50;13.55;;;;;;;;;;4993637;28;20482;-53
2022/01/23 09:20:24;;;;;;;25.67;13.25;;;;;;;;;;4992265;28;20548;-55
2022/01/23 09:22:50;;;;;;;29.88;14.63;;;;;;;;;;4991808;28;20019;-54
2022/01/23 09:25:16;;;;;;;24.17;13.02;;;;;;;;;;4993864;28;20023;-55
2022/01/23 09:27:43;;;;;;;27.48;13.90;;;;;;;;;;4994150;28;20026;-55
2022/01/23 09:30:17;;;;;;;30.98;16.63;;;;;;;;;;4993631;28;20018;-56
2022/01/23 09:32:44;;;;;;;36.72;16.30;;;;;;;;;;4993412;28;20034;-52
2022/01/23 09:35:10;;;;;;;35.33;16.42;;;;;;;;;;4991998;28;20026;-55
2022/01/23 09:37:36;;;;;;;32.78;15.88;;;;;;;;;;4992270;28;20037;-50
2022/01/23 09:40:05;;;;;;;25.45;13.32;;;;;;;;;;4993234;28;20018;-58
2022/01/23 09:42:51;;;;;;;28.42;14.63;;;;;;;;;;4993944;28;20495;-52
2022/01/23 09:45:17;;;;;;;26.02;14.50;;;;;;;;;;4993598;28;20081;-55
2022/01/23 09:47:44;;;;;;;29.77;13.80;;;;;;;;;;4993406;28;20541;-49
2022/01/23 09:50:11;;;;;;;25.30;14.15;;;;;;;;;;4993187;28;20379;-57
2022/01/23 09:52:38;;;;;;;24.13;12.52;;;;;;;;;;4993407;28;20064;-56
2022/01/23 09:55:08;;;;;;;25.15;12.38;;;;;;;;;;4993346;28;20037;-57
2022/01/23 09:57:45;;;;;;;21.17;11.82;;;;;;;;;;4992889;28;20046;-57
2022/01/23 10:00:13;;;;;;;26.27;12.88;;;;;;;;;;4985478;28;20038;-55
2022/01/23 10:02:39;;;;;;;25.08;13.68;;;;;;;;;;4996176;28;20033;-54
2022/01/23 10:05:06;;;;;;;26.60;12.88;;;;;;;;;;4997313;28;20029;-56
2022/01/23 10:07:37;;;;;;;25.40;11.57;;;;;;;;;;4980013;28;20026;-56
2022/01/23 10:10:10;;;;;;;23.50;12.57;;;;;;;;;;4997117;28;20054;-55
2022/01/23 10:12:41;;;;;;;25.92;13.18;;;;;;;;;;4996861;28;20291;-53
2022/01/23 10:15:08;;;;;;;23.85;14.00;;;;;;;;;;4997120;28;20035;-52
2022/01/23 10:17:35;;;;;;;31.33;15.10;;;;;;;;;;4997019;28;20379;-52
2022/01/23 10:20:02;;;;;;;48.40;21.17;;;;;;;;;;4996431;28;20019;-53
2022/01/23 10:22:29;;;;;;;27.17;15.50;;;;;;;;;;4996649;28;20030;-58
2022/01/23 10:25:04;;;;;;;28.75;14.40;;;;;;;;;;4996568;28;20022;-52
2022/01/23 10:27:50;;;;;;;28.67;16.95;;;;;;;;;;4978717;28;20085;-52
2022/01/23 10:30:20;;;;;;;30.38;15.80;;;;;;;;;;4996503;28;20069;-53
2022/01/23 10:32:57;;;;;;;26.52;14.88;;;;;;;;;;4996308;28;20026;-57
2022/01/23 10:35:24;;;;;;;32.75;14.15;;;;;;;;;;4996788;28;20046;-54
2022/01/23 10:37:52;;;;;;;28.73;14.98;;;;;;;;;;4996831;28;20134;-56
2022/01/23 10:40:25;;;;;;;28.88;14.32;;;;;;;;;;4996242;28;20031;-60
2022/01/23 10:46:34;;;;;;;31.38;15.13;;;;;;;;;;4996974;28;20169;-58
2022/01/23 10:48:37;;;;;;;29.48;14.70;;;;;;;;;;4965664;28;20173;-57
2022/01/23 10:51:18;;;;;;;25.42;13.57;;;;;;;;;;4997375;28;20073;-55
2022/01/23 10:54:00;;;;;;;34.58;17.92;;;;;;;;;;4995786;28;20407;-54
2022/01/23 10:56:26;;;;;;;;;;;;;;;;;;4996956;28;20117;-51
2022/01/23 10:59:00;;;;;;;30.58;14.70;;;;;;;;;;4996738;28;19921;-59
2022/01/23 11:01:27;;;;;;;27.27;12.85;;;;;;;;;;4995323;28;20116;-54
2022/01/23 11:04:13;;;;;;;23.08;10.50;;;;;;;;;;4993588;28;20029;-58
2022/01/23 11:06:52;;;;;;;20.55;8.80;;;;;;;;;;4976925;28;20023;-59
2022/01/23 11:09:18;;;;;;;18.13;9.07;;;;;;;;;;4995891;28;20034;-55
2022/01/23 11:11:50;;;;;;;34.58;13.68;;;;;;;;;;4988897;28;20027;-56
2022/01/23 11:17:24;;;;;;;14.35;8.55;;;;;;;;;;4979778;28;20542;-58
2022/01/23 11:19:52;;;;;;;18.63;9.20;;;;;;;;;;4985482;28;20049;-53
2022/01/23 11:22:20;;;;;;;16.92;7.38;;;;;;;;;;4984840;28;20097;-54
2022/01/23 11:24:47;;;;;;;16.95;8.02;;;;;;;;;;4987093;28;20077;-57
2022/01/23 11:27:15;;;;;;;12.70;6.75;;;;;;;;;;4988374;28;20368;-53
2022/01/23 11:30:02;;;;;;;14.70;7.65;;;;;;;;;;4986895;28;20030;-54
2022/01/23 11:32:37;;;;;;;24.17;12.32;;;;;;;;;;4985157;28;20031;-55
2022/01/23 11:35:09;;;;;;;17.40;8.32;;;;;;;;;;4984328;28;20023;-58
2022/01/23 11:37:44;;;;;;;13.00;6.65;;;;;;;;;;4989733;28;20030;-56
2022/01/23 11:40:30;;;;;;;13.95;7.53;;;;;;;;;;4995875;28;20027;-57
2022/01/23 11:54:06;;;;;;;16.58;7.22;;;;;;;;;;4959095;28;20138;-50
2022/01/23 11:56:36;;;;;;;13.82;8.20;;;;;;;;;;4995331;28;20512;-57
2022/01/23 11:59:17;;;;;;;20.73;8.43;;;;;;;;;;4995123;28;20036;-55
2022/01/23 12:01:45;;;;;;;21.47;8.57;;;;;;;;;;4995217;28;20033;-58
2022/01/23 12:04:18;;;;;;;20.27;9.95;;;;;;;;;;4994762;28;20347;-51
2022/01/23 12:06:45;;;;;;;22.60;9.13;;;;;;;;;;4983393;28;20025;-52
2022/01/23 12:09:18;;;;;;;23.88;11.60;;;;;;;;;;4985512;28;20052;-56
2022/01/23 12:12:04;;;;;;;21.63;9.02;;;;;;;;;;4983357;28;20066;-56
2022/01/23 12:17:11;;;;;;;19.02;9.68;;;;;;;;;;4985655;28;20059;-58
2022/01/23 12:19:40;;;;;;;18.20;8.90;;;;;;;;;;4982508;28;20081;-50
2022/01/23 12:22:24;;;;;;;23.52;9.10;;;;;;;;;;4965096;28;20412;-60
2022/01/23 12:24:51;;;;;;;17.15;8.23;;;;;;;;;;4985229;28;20018;-57
2022/01/23 12:27:19;;;;;;;18.10;8.75;;;;;;;;;;4982603;28;20026;-60
2022/01/23 12:29:45;;;;;;;18.02;9.18;;;;;;;;;;4984323;28;20058;-54
2022/01/23 12:32:31;;;;;;;14.88;8.25;;;;;;;;;;4984571;28;20075;-60
2022/01/23 12:34:59;;;;;;;18.25;8.45;;;;;;;;;;4984159;28;20018;-54
2022/01/23 12:37:26;;;;;;;18.60;8.68;;;;;;;;;;4964741;28;20023;-57
2022/01/23 12:40:10;;;;;;;16.10;8.85;;;;;;;;;;4982259;28;20023;-53
2022/01/23 12:42:55;;;;;;;18.15;9.65;;;;;;;;;;4974900;28;20138;-57
2022/01/23 12:45:39;;;;;;;12.75;7.43;;;;;;;;;;4974591;28;20088;-52
2022/01/23 12:48:24;;;;;;;17.48;7.15;;;;;;;;;;4974633;28;20030;-59
2022/01/23 12:50:50;;;;;;;14.57;7.13;;;;;;;;;;4957048;28;20041;-56
2022/01/23 12:53:16;;;;;;;13.95;7.80;;;;;;;;;;4974673;28;20015;-57
2022/01/23 12:56:21;;;;;;;14.07;6.78;;;;;;;;;;4974753;28;20037;-56
2022/01/23 12:58:54;;;;;;;14.27;7.45;;;;;;;;;;4914458;29;20092;-58
2022/01/23 13:01:24;;;;;;;16.70;9.00;;;;;;;;;;4914293;29;20500;-54
2022/01/23 13:04:01;;;;;;;12.30;6.78;;;;;;;;;;4956907;28;20037;-53
2022/01/23 13:06:30;;;;;;;14.90;8.52;;;;;;;;;;4993671;28;20018;-53
2022/01/23 13:09:54;;;;;;;17.38;9.23;;;;;;;;;;4985456;28;20030;-53
2022/01/23 13:17:40;;;;;;;25.60;13.10;;;;;;;;;;4984831;28;20041;-53
2022/01/23 13:31:08;;;;;;;16.25;8.90;;;;;;;;;;4984455;28;20104;-60
2022/01/23 13:33:34;;;;;;;19.67;10.13;;;;;;;;;;4985081;28;20049;-59
2022/01/23 13:36:03;;;;;;;25.55;11.43;;;;;;;;;;4986604;28;20031;-55
2022/01/23 13:38:33;;;;;;;20.67;9.68;;;;;;;;;;4988276;28;20030;-56
2022/01/23 13:41:09;;;;;;;18.52;9.55;;;;;;;;;;4988418;28;20076;-54
2022/01/23 14:02:25;;;;;;;28.00;14.15;;;;;;;;;;4990967;28;20429;-54
2022/01/23 14:04:51;;;;;;;23.15;11.85;;;;;;;;;;4997708;28;20378;-59
2022/01/23 14:07:36;;;;;;;22.33;10.77;;;;;;;;;;4979946;28;20018;-54
2022/01/23 14:10:16;;;;;;;26.55;12.98;;;;;;;;;;4997159;28;20406;-57
2022/01/23 14:12:42;;;;;;;52.38;22.00;;;;;;;;;;4996840;28;20026;-58
2022/01/23 14:15:19;;;;;;;21.95;11.95;;;;;;;;;;4997146;28;20034;-54
2022/01/23 14:17:55;;;;;;;28.17;14.10;;;;;;;;;;4997227;28;20093;-52
2022/01/23 14:20:23;;;;;;;28.50;13.98;;;;;;;;;;4997499;28;20022;-56
2022/01/23 14:22:51;;;;;;;33.60;13.55;;;;;;;;;;4990607;28;20034;-59
2022/01/23 14:25:17;;;;;;;22.83;13.10;;;;;;;;;;4986085;28;20046;-55
2022/01/23 14:27:46;;;;;;;27.58;13.77;;;;;;;;;;4986189;28;20499;-60
2022/01/23 14:30:18;;;;;;;28.08;13.93;;;;;;;;;;4984875;28;20023;-60
2022/01/23 14:32:48;;;;;;;29.67;15.25;;;;;;;;;;4984146;28;20014;-57
2022/01/23 14:35:16;;;;;;;30.83;15.73;;;;;;;;;;4991242;28;20110;-60
2022/01/23 14:37:44;;;;;;;32.67;13.00;;;;;;;;;;4993067;28;20028;-59
2022/01/23 14:40:15;;;;;;;28.98;13.77;;;;;;;;;;4986735;28;20019;-57
2022/01/23 14:42:56;;;;;;;27.95;13.70;;;;;;;;;;4985655;28;20034;-59
2022/01/23 14:45:23;;;;;;;;;;;;;;;;;;4984052;28;20046;-57
2022/01/23 14:47:49;;;;;;;28.45;13.43;;;;;;;;;;4984854;28;20366;-57
2022/01/23 14:50:18;;;;;;;29.25;13.93;;;;;;;;;;4985917;28;20490;-56
2022/01/23 14:52:45;;;;;;;28.95;14.20;;;;;;;;;;4984228;28;20066;-60
2022/01/23 14:55:11;;;;;;;34.40;16.85;;;;;;;;;;4985338;28;20045;-57
2022/01/23 14:57:40;;;;;;;39.30;19.88;;;;;;;;;;4986827;28;20047;-53
2022/01/23 15:00:07;;;;;;;46.05;22.23;;;;;;;;;;4985352;28;20018;-56
2022/01/23 15:02:33;;;;;;;51.15;23.08;;;;;;;;;;4985746;28;20034;-55
2022/01/23 15:05:02;;;;;;;51.40;24.45;;;;;;;;;;4987290;28;20042;-56
2022/01/23 15:07:39;;;;;;;46.20;24.50;;;;;;;;;;4985860;28;20074;-59
2022/01/23 15:10:06;;;;;;;46.17;24.00;;;;;;;;;;4985196;28;20026;-56
2022/01/23 15:12:37;;;;;;;45.13;20.10;;;;;;;;;;4985354;28;20045;-60
2022/01/23 15:15:04;;;;;;;56.13;26.48;;;;;;;;;;4984756;28;20479;-54
2022/01/23 15:17:30;;;;;;;53.83;26.77;;;;;;;;;;4983464;28;20375;-62
2022/01/23 15:19:57;;;;;;;53.67;28.55;;;;;;;;;;4986299;28;20022;-59
2022/01/23 15:22:23;;;;;;;56.70;27.88;;;;;;;;;;4984639;28;20031;-56
2022/01/23 15:24:49;;;;;;;53.67;25.48;;;;;;;;;;4986130;28;20105;-57
2022/01/23 15:27:16;;;;;;;49.10;24.45;;;;;;;;;;4986130;28;20023;-56
2022/01/23 15:29:43;;;;;;;46.20;22.88;;;;;;;;;;4984622;28;20022;-60
2022/01/23 15:32:09;;;;;;;38.47;20.40;;;;;;;;;;4985560;28;20030;-54
2022/01/23 15:34:41;;;;;;;39.08;20.83;;;;;;;;;;4985560;28;20023;-56
2022/01/23 15:37:07;;;;;;;39.85;19.77;;;;;;;;;;4967995;28;20376;-58
2022/01/23 15:39:33;;;;;;;45.40;22.10;;;;;;;;;;4985141;28;20029;-55
2022/01/23 15:42:00;;;;;;;33.42;17.98;;;;;;;;;;4986034;28;20537;-56
2022/01/23 15:44:26;;;;;;;44.30;23.15;;;;;;;;;;4983301;28;20038;-58
2022/01/23 15:46:52;;;;;;;52.28;24.40;;;;;;;;;;4981366;28;20026;-54
2022/01/23 15:49:18;;;;;;;52.67;27.70;;;;;;;;;;4974568;28;20025;-60
2022/01/23 15:51:47;;;;;;;56.85;28.30;;;;;;;;;;4974985;28;20033;-58
2022/01/23 15:54:14;;;;;;;60.42;29.38;;;;;;;;;;4975571;28;20038;-57
2022/01/23 15:56:40;;;;;;;47.58;24.90;;;;;;;;;;4975094;28;20027;-55
2022/01/23 15:59:12;;;;;;;44.55;21.65;;;;;;;;;;4975179;28;20114;-56
2022/01/23 16:01:51;;;;;;;35.40;17.48;;;;;;;;;;4957724;28;20499;-58
2022/01/23 16:04:25;;;;;;;;;;;;;;;;;;4984392;28;20030;-59
2022/01/23 16:06:54;;;;;;;39.17;21.05;;;;;;;;;;4984067;28;20315;-64
2022/01/23 16:09:26;;;;;;;47.97;23.80;;;;;;;;;;4975780;28;20028;-64
2022/01/23 16:11:53;;;;;;;36.72;20.38;;;;;;;;;;4977735;28;20061;-62
2022/01/23 16:14:20;;;;;;;45.95;21.75;;;;;;;;;;4984499;28;20033;-63
2022/01/23 16:16:47;;;;;;;40.08;20.00;;;;;;;;;;4973854;28;20026;-63
2022/01/23 16:19:13;;;;;;;44.10;21.15;;;;;;;;;;4973834;28;20118;-62
2022/01/23 16:21:41;;;;;;;40.13;19.83;;;;;;;;;;4974636;28;20076;-61
2022/01/23 16:24:07;;;;;;;36.90;20.15;;;;;;;;;;4974033;28;20027;-60
2022/01/23 16:26:34;;;;;;;44.70;22.65;;;;;;;;;;4975937;28;20548;-63
2022/01/23 16:29:00;;;;;;;57.05;27.00;;;;;;;;;;4975069;28;20026;-60
2022/01/23 16:31:27;;;;;;;59.55;28.83;;;;;;;;;;4974696;28;20027;-60
2022/01/23 16:33:53;;;;;;;64.70;27.45;;;;;;;;;;4975050;28;20077;-62
2022/01/23 16:36:19;;;;;;;50.50;23.95;;;;;;;;;;4975005;28;20038;-64
2022/01/23 16:38:45;;;;;;;50.78;25.73;;;;;;;;;;4975026;28;20015;-61
2022/01/23 16:41:12;;;;;;;33.15;17.45;;;;;;;;;;4974910;28;20027;-59
2022/01/23 16:43:38;;;;;;;44.83;21.80;;;;;;;;;;4974262;28;20097;-62
2022/01/23 16:46:06;;;;;;;31.98;18.02;;;;;;;;;;4975013;28;20023;-62
2022/01/23 16:48:32;;;;;;;55.45;26.45;;;;;;;;;;4975268;28;20081;-63
2022/01/23 16:51:00;;;;;;;51.75;24.33;;;;;;;;;;4973709;28;20475;-62
2022/01/23 16:53:26;;;;;;;48.22;20.98;;;;;;;;;;4972844;28;20493;-58
2022/01/23 16:55:56;;;;;;;41.88;20.23;;;;;;;;;;4980992;28;20033;-60
2022/01/23 16:58:24;;;;;;;35.38;16.95;;;;;;;;;;4957267;28;20055;-61
2022/01/23 17:00:50;;;;;;;38.00;18.42;;;;;;;;;;4974753;28;20026;-58
2022/01/23 17:03:16;;;;;;;36.05;16.45;;;;;;;;;;4957650;28;20110;-61
2022/01/23 17:05:45;;;;;;;22.58;11.55;;;;;;;;;;4974658;28;20635;-62
2022/01/23 17:08:11;;;;;;;21.60;10.48;;;;;;;;;;4975203;28;20338;-61
2022/01/23 17:10:37;;;;;;;22.20;10.45;;;;;;;;;;4974837;28;20031;-61
2022/01/23 17:13:03;;;;;;;24.15;10.57;;;;;;;;;;4974491;28;20080;-63
2022/01/23 17:15:30;;;;;;;21.45;11.93;;;;;;;;;;4974615;28;20033;-62
2022/01/23 17:17:56;;;;;;;25.60;12.32;;;;;;;;;;4974216;28;20023;-62
2022/01/23 17:20:22;;;;;;;22.02;11.05;;;;;;;;;;4984003;28;20023;-63
2022/01/23 17:22:50;;;;;;;25.92;12.23;;;;;;;;;;4987013;28;20018;-60
2022/01/23 17:25:16;;;;;;;24.25;11.38;;;;;;;;;;4978615;28;20026;-63
2022/01/23 17:27:44;;;;;;;23.40;11.52;;;;;;;;;;4983036;28;20081;-60
2022/01/23 17:30:11;;;;;;;21.10;11.07;;;;;;;;;;4982243;28;20022;-61
2022/01/23 17:32:37;;;;;;;20.20;10.95;;;;;;;;;;4993519;28;20399;-58
2022/01/23 17:35:04;;;;;;;19.40;10.65;;;;;;;;;;4994128;28;20447;-60
2022/01/23 17:37:30;;;;;;;20.38;10.38;;;;;;;;;;4993843;28;20518;-63
2022/01/23 17:39:56;;;;;;;23.58;10.55;;;;;;;;;;4993836;28;20371;-60
2022/01/23 17:42:22;;;;;;;18.20;9.63;;;;;;;;;;4993664;28;20035;-58
2022/01/23 17:44:50;;;;;;;22.58;9.60;;;;;;;;;;4993700;28;20471;-61
2022/01/23 17:47:33;;;;;;;15.52;8.88;;;;;;;;;;4993844;28;20039;-64